sensor_id;sensor_type;location;lat;lon;timestamp;P1;durP1;ratioP1;P2;durP2;ratioP2
69030;SDS011;56083;48.774;8.942;2024-02-21T00:01:42;27.80;;;5.82;;
69030;SDS011;56083;48.774;8.942;2024-02-21T00:04:08;16.38;;;5.30;;
69030;SDS011;56083;48.774;8.942;2024-02-21T00:06:34;27.80;;;5.53;;
69030;SDS011;56083;48.774;8.942;2024-02-21T00:09:00;19.75;;;5.10;;
69030;SDS011;56083;48.774;8.942;2024-02-21T00:11:26;22.75;;;5.25;;
69030;SDS011;56083;48.774;8.942;2024-02-21T00:13:52;22.42;;;5.47;;
69030;SDS011;56083;48.774;8.942;2024-02-21T00:16:18;18.60;;;5.43;;
69030;SDS011;56083;48.774;8.942;2024-02-21T00:18:44;21.55;;;5.25;;
69030;SDS011;56083;48.774;8.942;2024-02-21T00:21:10;20.00;;;5.38;;
69030;SDS011;56083;48.774;8.942;2024-02-21T00:23:42;20.13;;;5.10;;
69030;SDS011;56083;48.774;8.942;2024-02-21T00:26:08;21.05;;;5.25;;
69030;SDS011;56083;48.774;8.942;2024-02-21T00:28:34;20.83;;;5.15;;
69030;SDS011;56083;48.774;8.942;2024-02-21T00:31:00;20.00;;;5.18;;
69030;SDS011;56083;48.774;8.942;2024-02-21T00:33:26;19.52;;;4.60;;
69030;SDS011;56083;48.774;8.942;2024-02-21T00:35:52;23.75;;;5.43;;
69030;SDS011;56083;48.774;8.942;2024-02-21T00:38:18;19.13;;;4.85;;
69030;SDS011;56083;48.774;8.942;2024-02-21T00:40:44;22.20;;;5.75;;
69030;SDS011;56083;48.774;8.942;2024-02-21T00:43:10;21.23;;;4.75;;
69030;SDS011;56083;48.774;8.942;2024-02-21T00:45:36;25.20;;;5.10;;
69030;SDS011;56083;48.774;8.942;2024-02-21T00:48:02;18.27;;;5.05;;
69030;SDS011;56083;48.774;8.942;2024-02-21T00:50:28;22.10;;;5.45;;
69030;SDS011;56083;48.774;8.942;2024-02-21T00:52:54;18.98;;;5.00;;
69030;SDS011;56083;48.774;8.942;2024-02-21T00:55:20;23.23;;;4.97;;
69030;SDS011;56083;48.774;8.942;2024-02-21T00:57:46;22.95;;;4.97;;
69030;SDS011;56083;48.774;8.942;2024-02-21T01:00:12;16.50;;;4.85;;
69030;SDS011;56083;48.774;8.942;2024-02-21T01:02:39;21.85;;;4.90;;
69030;SDS011;56083;48.774;8.942;2024-02-21T01:05:05;20.05;;;4.50;;
69030;SDS011;56083;48.774;8.942;2024-02-21T01:07:31;21.33;;;4.43;;
69030;SDS011;56083;48.774;8.942;2024-02-21T01:09:57;22.42;;;4.55;;
69030;SDS011;56083;48.774;8.942;2024-02-21T01:12:23;18.20;;;4.60;;
69030;SDS011;56083;48.774;8.942;2024-02-21T01:14:49;23.30;;;4.88;;
69030;SDS011;56083;48.774;8.942;2024-02-21T01:17:15;15.52;;;4.20;;
69030;SDS011;56083;48.774;8.942;2024-02-21T01:19:41;20.35;;;4.05;;
69030;SDS011;56083;48.774;8.942;2024-02-21T01:22:07;17.25;;;4.10;;
69030;SDS011;56083;48.774;8.942;2024-02-21T01:24:33;18.05;;;3.40;;
69030;SDS011;56083;48.774;8.942;2024-02-21T01:26:59;20.50;;;4.57;;
69030;SDS011;56083;48.774;8.942;2024-02-21T01:29:25;26.55;;;4.45;;
69030;SDS011;56083;48.774;8.942;2024-02-21T01:31:51;23.38;;;3.95;;
69030;SDS011;56083;48.774;8.942;2024-02-21T01:34:17;18.92;;;3.42;;
69030;SDS011;56083;48.774;8.942;2024-02-21T01:36:43;17.70;;;3.95;;
69030;SDS011;56083;48.774;8.942;2024-02-21T01:39:09;19.08;;;3.92;;
69030;SDS011;56083;48.774;8.942;2024-02-21T01:41:35;19.48;;;3.78;;
69030;SDS011;56083;48.774;8.942;2024-02-21T01:44:00;21.25;;;4.35;;
69030;SDS011;56083;48.774;8.942;2024-02-21T01:46:26;24.00;;;4.45;;
69030;SDS011;56083;48.774;8.942;2024-02-21T01:48:56;21.95;;;4.15;;
69030;SDS011;56083;48.774;8.942;2024-02-21T01:51:26;20.58;;;3.90;;
69030;SDS011;56083;48.774;8.942;2024-02-21T01:53:52;18.67;;;4.07;;
69030;SDS011;56083;48.774;8.942;2024-02-21T01:56:19;22.13;;;4.28;;
69030;SDS011;56083;48.774;8.942;2024-02-21T01:58:45;22.83;;;4.25;;
69030;SDS011;56083;48.774;8.942;2024-02-21T02:01:11;24.30;;;3.97;;
69030;SDS011;56083;48.774;8.942;2024-02-21T02:03:37;17.48;;;3.80;;
69030;SDS011;56083;48.774;8.942;2024-02-21T02:06:04;14.77;;;3.60;;
69030;SDS011;56083;48.774;8.942;2024-02-21T02:08:31;16.33;;;3.78;;
69030;SDS011;56083;48.774;8.942;2024-02-21T02:10:58;19.00;;;3.83;;
69030;SDS011;56083;48.774;8.942;2024-02-21T02:13:24;12.85;;;3.40;;
69030;SDS011;56083;48.774;8.942;2024-02-21T02:15:50;14.68;;;3.40;;
69030;SDS011;56083;48.774;8.942;2024-02-21T02:18:17;18.08;;;3.97;;
69030;SDS011;56083;48.774;8.942;2024-02-21T02:20:44;17.13;;;4.13;;
69030;SDS011;56083;48.774;8.942;2024-02-21T02:23:21;17.38;;;3.42;;
69030;SDS011;56083;48.774;8.942;2024-02-21T02:25:47;16.00;;;3.95;;
69030;SDS011;56083;48.774;8.942;2024-02-21T02:28:19;17.80;;;3.63;;
69030;SDS011;56083;48.774;8.942;2024-02-21T02:30:45;21.77;;;4.30;;
69030;SDS011;56083;48.774;8.942;2024-02-21T02:33:11;12.88;;;3.95;;
69030;SDS011;56083;48.774;8.942;2024-02-21T02:35:37;16.40;;;4.05;;
69030;SDS011;56083;48.774;8.942;2024-02-21T02:38:03;15.15;;;4.10;;
69030;SDS011;56083;48.774;8.942;2024-02-21T02:40:30;18.83;;;4.18;;
69030;SDS011;56083;48.774;8.942;2024-02-21T02:42:56;18.75;;;4.28;;
69030;SDS011;56083;48.774;8.942;2024-02-21T02:45:22;16.15;;;4.38;;
69030;SDS011;56083;48.774;8.942;2024-02-21T02:47:49;20.52;;;4.68;;
69030;SDS011;56083;48.774;8.942;2024-02-21T02:50:15;15.82;;;4.32;;
69030;SDS011;56083;48.774;8.942;2024-02-21T02:52:41;21.58;;;4.75;;
69030;SDS011;56083;48.774;8.942;2024-02-21T02:55:07;22.52;;;4.57;;
69030;SDS011;56083;48.774;8.942;2024-02-21T02:57:33;22.02;;;4.63;;
69030;SDS011;56083;48.774;8.942;2024-02-21T02:59:59;13.50;;;4.30;;
69030;SDS011;56083;48.774;8.942;2024-02-21T03:02:25;18.92;;;4.95;;
69030;SDS011;56083;48.774;8.942;2024-02-21T03:04:51;21.30;;;4.85;;
69030;SDS011;56083;48.774;8.942;2024-02-21T03:07:18;20.85;;;4.95;;
69030;SDS011;56083;48.774;8.942;2024-02-21T03:09:44;18.92;;;5.10;;
69030;SDS011;56083;48.774;8.942;2024-02-21T03:12:10;28.92;;;4.90;;
69030;SDS011;56083;48.774;8.942;2024-02-21T03:14:36;22.20;;;5.38;;
69030;SDS011;56083;48.774;8.942;2024-02-21T03:17:02;20.67;;;4.72;;
69030;SDS011;56083;48.774;8.942;2024-02-21T03:19:29;26.45;;;5.40;;
69030;SDS011;56083;48.774;8.942;2024-02-21T03:21:55;23.83;;;5.22;;
69030;SDS011;56083;48.774;8.942;2024-02-21T03:24:21;22.83;;;5.60;;
69030;SDS011;56083;48.774;8.942;2024-02-21T03:26:48;28.85;;;6.03;;
69030;SDS011;56083;48.774;8.942;2024-02-21T03:29:14;24.98;;;5.22;;
69030;SDS011;56083;48.774;8.942;2024-02-21T03:31:41;23.92;;;5.10;;
69030;SDS011;56083;48.774;8.942;2024-02-21T03:34:07;32.75;;;6.25;;
69030;SDS011;56083;48.774;8.942;2024-02-21T03:36:33;27.25;;;5.72;;
69030;SDS011;56083;48.774;8.942;2024-02-21T03:38:59;17.33;;;5.07;;
69030;SDS011;56083;48.774;8.942;2024-02-21T03:41:26;27.30;;;5.90;;
69030;SDS011;56083;48.774;8.942;2024-02-21T03:43:52;17.05;;;5.95;;
69030;SDS011;56083;48.774;8.942;2024-02-21T03:46:18;30.92;;;6.40;;
69030;SDS011;56083;48.774;8.942;2024-02-21T03:48:44;26.35;;;6.18;;
69030;SDS011;56083;48.774;8.942;2024-02-21T03:51:11;23.25;;;5.88;;
69030;SDS011;56083;48.774;8.942;2024-02-21T03:53:37;25.55;;;6.57;;
69030;SDS011;56083;48.774;8.942;2024-02-21T03:56:03;26.15;;;6.53;;
69030;SDS011;56083;48.774;8.942;2024-02-21T03:58:29;32.03;;;6.65;;
69030;SDS011;56083;48.774;8.942;2024-02-21T04:00:56;32.28;;;6.00;;
69030;SDS011;56083;48.774;8.942;2024-02-21T04:03:22;24.67;;;6.97;;
69030;SDS011;56083;48.774;8.942;2024-02-21T04:05:48;23.85;;;6.15;;
69030;SDS011;56083;48.774;8.942;2024-02-21T04:08:14;25.50;;;5.93;;
69030;SDS011;56083;48.774;8.942;2024-02-21T04:10:40;28.60;;;6.03;;
69030;SDS011;56083;48.774;8.942;2024-02-21T04:13:06;26.65;;;6.85;;
69030;SDS011;56083;48.774;8.942;2024-02-21T04:15:32;26.88;;;5.95;;
69030;SDS011;56083;48.774;8.942;2024-02-21T04:17:58;25.83;;;6.30;;
69030;SDS011;56083;48.774;8.942;2024-02-21T04:20:24;23.38;;;6.50;;
69030;SDS011;56083;48.774;8.942;2024-02-21T04:22:51;21.15;;;5.70;;
69030;SDS011;56083;48.774;8.942;2024-02-21T04:25:17;29.08;;;6.13;;
69030;SDS011;56083;48.774;8.942;2024-02-21T04:27:44;21.45;;;5.75;;
69030;SDS011;56083;48.774;8.942;2024-02-21T04:30:10;25.02;;;5.97;;
69030;SDS011;56083;48.774;8.942;2024-02-21T04:32:36;31.88;;;6.05;;
69030;SDS011;56083;48.774;8.942;2024-02-21T04:35:02;23.40;;;6.32;;
69030;SDS011;56083;48.774;8.942;2024-02-21T04:37:29;26.63;;;6.65;;
69030;SDS011;56083;48.774;8.942;2024-02-21T04:39:56;25.70;;;5.93;;
69030;SDS011;56083;48.774;8.942;2024-02-21T04:42:22;25.35;;;5.85;;
69030;SDS011;56083;48.774;8.942;2024-02-21T04:44:48;29.25;;;7.75;;
69030;SDS011;56083;48.774;8.942;2024-02-21T04:47:14;31.80;;;9.27;;
69030;SDS011;56083;48.774;8.942;2024-02-21T04:49:40;44.78;;;14.32;;
69030;SDS011;56083;48.774;8.942;2024-02-21T04:52:06;39.25;;;14.60;;
69030;SDS011;56083;48.774;8.942;2024-02-21T04:54:32;55.92;;;18.77;;
69030;SDS011;56083;48.774;8.942;2024-02-21T04:57:00;124.85;;;41.38;;
69030;SDS011;56083;48.774;8.942;2024-02-21T04:59:26;106.40;;;34.13;;
69030;SDS011;56083;48.774;8.942;2024-02-21T05:01:52;99.25;;;29.90;;
69030;SDS011;56083;48.774;8.942;2024-02-21T05:04:18;68.55;;;22.95;;
69030;SDS011;56083;48.774;8.942;2024-02-21T05:06:44;49.88;;;16.33;;
69030;SDS011;56083;48.774;8.942;2024-02-21T05:09:10;52.58;;;16.10;;
69030;SDS011;56083;48.774;8.942;2024-02-21T05:11:36;46.40;;;15.48;;
69030;SDS011;56083;48.774;8.942;2024-02-21T05:14:05;45.03;;;14.32;;
69030;SDS011;56083;48.774;8.942;2024-02-21T05:16:31;35.85;;;11.35;;
69030;SDS011;56083;48.774;8.942;2024-02-21T05:18:57;30.55;;;7.60;;
69030;SDS011;56083;48.774;8.942;2024-02-21T05:21:24;35.17;;;8.52;;
69030;SDS011;56083;48.774;8.942;2024-02-21T05:23:50;30.88;;;9.68;;
69030;SDS011;56083;48.774;8.942;2024-02-21T05:26:34;31.38;;;8.02;;
69030;SDS011;56083;48.774;8.942;2024-02-21T05:29:00;23.83;;;7.00;;
69030;SDS011;56083;48.774;8.942;2024-02-21T05:31:26;32.70;;;7.40;;
69030;SDS011;56083;48.774;8.942;2024-02-21T05:34:08;34.22;;;9.27;;
69030;SDS011;56083;48.774;8.942;2024-02-21T05:36:34;27.30;;;7.47;;
69030;SDS011;56083;48.774;8.942;2024-02-21T05:39:00;28.73;;;6.68;;
69030;SDS011;56083;48.774;8.942;2024-02-21T05:41:26;32.45;;;7.47;;
69030;SDS011;56083;48.774;8.942;2024-02-21T05:43:52;36.60;;;15.73;;
69030;SDS011;56083;48.774;8.942;2024-02-21T05:46:19;69.93;;;32.42;;
69030;SDS011;56083;48.774;8.942;2024-02-21T05:48:45;98.30;;;49.00;;
69030;SDS011;56083;48.774;8.942;2024-02-21T05:51:11;45.00;;;23.02;;
69030;SDS011;56083;48.774;8.942;2024-02-21T05:53:38;55.83;;;31.15;;
69030;SDS011;56083;48.774;8.942;2024-02-21T05:56:09;25.08;;;7.45;;
69030;SDS011;56083;48.774;8.942;2024-02-21T05:58:36;37.80;;;6.97;;
69030;SDS011;56083;48.774;8.942;2024-02-21T06:01:02;23.50;;;7.03;;
69030;SDS011;56083;48.774;8.942;2024-02-21T06:03:28;21.27;;;6.20;;
69030;SDS011;56083;48.774;8.942;2024-02-21T06:05:54;28.08;;;6.53;;
69030;SDS011;56083;48.774;8.942;2024-02-21T06:08:20;31.50;;;6.00;;
69030;SDS011;56083;48.774;8.942;2024-02-21T06:10:46;21.33;;;5.50;;
69030;SDS011;56083;48.774;8.942;2024-02-21T06:13:13;22.33;;;6.03;;
69030;SDS011;56083;48.774;8.942;2024-02-21T06:15:39;24.45;;;6.20;;
69030;SDS011;56083;48.774;8.942;2024-02-21T06:18:05;22.13;;;6.25;;
69030;SDS011;56083;48.774;8.942;2024-02-21T06:20:32;29.27;;;5.72;;
69030;SDS011;56083;48.774;8.942;2024-02-21T06:22:58;24.20;;;6.10;;
69030;SDS011;56083;48.774;8.942;2024-02-21T06:25:24;26.85;;;6.25;;
69030;SDS011;56083;48.774;8.942;2024-02-21T06:27:49;28.13;;;6.53;;
69030;SDS011;56083;48.774;8.942;2024-02-21T06:30:15;22.55;;;6.57;;
69030;SDS011;56083;48.774;8.942;2024-02-21T06:32:41;21.20;;;5.82;;
69030;SDS011;56083;48.774;8.942;2024-02-21T06:35:07;24.13;;;6.03;;
69030;SDS011;56083;48.774;8.942;2024-02-21T06:37:33;23.98;;;6.70;;
69030;SDS011;56083;48.774;8.942;2024-02-21T06:40:00;27.05;;;6.88;;
69030;SDS011;56083;48.774;8.942;2024-02-21T06:42:26;17.98;;;5.28;;
69030;SDS011;56083;48.774;8.942;2024-02-21T06:44:52;23.73;;;6.03;;
69030;SDS011;56083;48.774;8.942;2024-02-21T06:47:18;22.05;;;5.68;;
69030;SDS011;56083;48.774;8.942;2024-02-21T06:49:48;20.80;;;6.93;;
69030;SDS011;56083;48.774;8.942;2024-02-21T06:52:14;26.60;;;7.13;;
69030;SDS011;56083;48.774;8.942;2024-02-21T06:54:42;23.25;;;5.82;;
69030;SDS011;56083;48.774;8.942;2024-02-21T06:57:08;24.05;;;6.05;;
69030;SDS011;56083;48.774;8.942;2024-02-21T06:59:34;19.65;;;5.05;;
69030;SDS011;56083;48.774;8.942;2024-02-21T07:02:00;16.42;;;4.90;;
69030;SDS011;56083;48.774;8.942;2024-02-21T07:04:26;16.90;;;4.22;;
69030;SDS011;56083;48.774;8.942;2024-02-21T07:06:52;24.27;;;3.60;;
69030;SDS011;56083;48.774;8.942;2024-02-21T07:09:18;21.02;;;3.92;;
69030;SDS011;56083;48.774;8.942;2024-02-21T07:11:44;23.42;;;4.00;;
69030;SDS011;56083;48.774;8.942;2024-02-21T07:14:10;18.98;;;3.88;;
69030;SDS011;56083;48.774;8.942;2024-02-21T07:16:36;18.70;;;3.50;;
69030;SDS011;56083;48.774;8.942;2024-02-21T07:19:02;16.60;;;3.47;;
69030;SDS011;56083;48.774;8.942;2024-02-21T07:21:28;23.05;;;4.30;;
69030;SDS011;56083;48.774;8.942;2024-02-21T07:23:54;15.25;;;3.92;;
69030;SDS011;56083;48.774;8.942;2024-02-21T07:26:20;16.45;;;3.78;;
69030;SDS011;56083;48.774;8.942;2024-02-21T07:28:46;13.10;;;4.32;;
69030;SDS011;56083;48.774;8.942;2024-02-21T07:31:13;14.45;;;3.97;;
69030;SDS011;56083;48.774;8.942;2024-02-21T07:33:39;21.85;;;4.30;;
69030;SDS011;56083;48.774;8.942;2024-02-21T07:36:09;12.77;;;3.28;;
69030;SDS011;56083;48.774;8.942;2024-02-21T07:38:36;17.00;;;4.00;;
69030;SDS011;56083;48.774;8.942;2024-02-21T07:41:02;13.77;;;3.35;;
69030;SDS011;56083;48.774;8.942;2024-02-21T07:43:29;23.10;;;3.95;;
69030;SDS011;56083;48.774;8.942;2024-02-21T07:45:55;11.80;;;3.67;;
69030;SDS011;56083;48.774;8.942;2024-02-21T07:48:22;17.67;;;3.83;;
69030;SDS011;56083;48.774;8.942;2024-02-21T07:50:52;21.15;;;4.03;;
69030;SDS011;56083;48.774;8.942;2024-02-21T07:53:19;17.95;;;3.88;;
69030;SDS011;56083;48.774;8.942;2024-02-21T07:55:46;17.27;;;3.70;;
69030;SDS011;56083;48.774;8.942;2024-02-21T07:58:12;16.85;;;3.78;;
69030;SDS011;56083;48.774;8.942;2024-02-21T08:00:38;19.17;;;4.15;;
69030;SDS011;56083;48.774;8.942;2024-02-21T08:03:04;15.90;;;3.85;;
69030;SDS011;56083;48.774;8.942;2024-02-21T08:05:30;14.82;;;3.50;;
69030;SDS011;56083;48.774;8.942;2024-02-21T08:07:56;156.75;;;65.22;;
69030;SDS011;56083;48.774;8.942;2024-02-21T08:10:22;513.45;;;274.33;;
69030;SDS011;56083;48.774;8.942;2024-02-21T08:12:49;342.58;;;166.25;;
69030;SDS011;56083;48.774;8.942;2024-02-21T08:15:15;117.75;;;52.42;;
69030;SDS011;56083;48.774;8.942;2024-02-21T08:17:41;50.50;;;24.83;;
69030;SDS011;56083;48.774;8.942;2024-02-21T08:20:07;13.43;;;5.38;;
69030;SDS011;56083;48.774;8.942;2024-02-21T08:22:37;13.40;;;3.33;;
69030;SDS011;56083;48.774;8.942;2024-02-21T08:25:03;10.35;;;3.17;;
69030;SDS011;56083;48.774;8.942;2024-02-21T08:27:31;13.13;;;2.90;;
69030;SDS011;56083;48.774;8.942;2024-02-21T08:29:57;13.70;;;3.40;;
69030;SDS011;56083;48.774;8.942;2024-02-21T08:32:23;14.82;;;3.30;;
69030;SDS011;56083;48.774;8.942;2024-02-21T08:34:50;19.08;;;3.30;;
69030;SDS011;56083;48.774;8.942;2024-02-21T08:37:16;15.57;;;3.28;;
69030;SDS011;56083;48.774;8.942;2024-02-21T08:39:42;15.27;;;3.42;;
69030;SDS011;56083;48.774;8.942;2024-02-21T08:42:08;14.23;;;3.22;;
69030;SDS011;56083;48.774;8.942;2024-02-21T08:44:34;11.00;;;2.63;;
69030;SDS011;56083;48.774;8.942;2024-02-21T08:47:00;12.27;;;3.00;;
69030;SDS011;56083;48.774;8.942;2024-02-21T08:49:28;11.20;;;3.00;;
69030;SDS011;56083;48.774;8.942;2024-02-21T08:51:54;14.35;;;3.40;;
69030;SDS011;56083;48.774;8.942;2024-02-21T08:54:20;12.95;;;2.95;;
69030;SDS011;56083;48.774;8.942;2024-02-21T08:56:46;17.15;;;3.53;;
69030;SDS011;56083;48.774;8.942;2024-02-21T08:59:13;13.45;;;3.38;;
69030;SDS011;56083;48.774;8.942;2024-02-21T09:01:40;13.68;;;3.05;;
69030;SDS011;56083;48.774;8.942;2024-02-21T09:04:06;14.38;;;3.38;;
69030;SDS011;56083;48.774;8.942;2024-02-21T09:06:32;12.25;;;3.25;;
69030;SDS011;56083;48.774;8.942;2024-02-21T09:09:01;18.02;;;3.00;;
69030;SDS011;56083;48.774;8.942;2024-02-21T09:11:27;16.95;;;3.35;;
69030;SDS011;56083;48.774;8.942;2024-02-21T09:13:53;11.63;;;3.33;;
69030;SDS011;56083;48.774;8.942;2024-02-21T09:16:20;15.43;;;3.25;;
69030;SDS011;56083;48.774;8.942;2024-02-21T09:18:46;14.35;;;3.38;;
69030;SDS011;56083;48.774;8.942;2024-02-21T09:21:12;12.98;;;3.28;;
69030;SDS011;56083;48.774;8.942;2024-02-21T09:23:38;16.20;;;3.25;;
69030;SDS011;56083;48.774;8.942;2024-02-21T09:26:04;13.77;;;3.08;;
69030;SDS011;56083;48.774;8.942;2024-02-21T09:28:30;13.93;;;3.00;;
69030;SDS011;56083;48.774;8.942;2024-02-21T09:30:56;21.27;;;3.90;;
69030;SDS011;56083;48.774;8.942;2024-02-21T09:33:22;12.63;;;2.90;;
69030;SDS011;56083;48.774;8.942;2024-02-21T09:35:48;13.32;;;3.00;;
69030;SDS011;56083;48.774;8.942;2024-02-21T09:38:14;12.15;;;2.95;;
69030;SDS011;56083;48.774;8.942;2024-02-21T09:40:41;11.60;;;3.08;;
69030;SDS011;56083;48.774;8.942;2024-02-21T09:43:07;15.20;;;3.17;;
69030;SDS011;56083;48.774;8.942;2024-02-21T09:45:33;14.38;;;3.05;;
69030;SDS011;56083;48.774;8.942;2024-02-21T09:50:33;12.63;;;3.17;;
69030;SDS011;56083;48.774;8.942;2024-02-21T09:53:01;11.95;;;3.03;;
69030;SDS011;56083;48.774;8.942;2024-02-21T09:55:29;16.35;;;3.47;;
69030;SDS011;56083;48.774;8.942;2024-02-21T09:57:57;19.77;;;3.60;;
69030;SDS011;56083;48.774;8.942;2024-02-21T10:00:23;10.38;;;2.88;;
69030;SDS011;56083;48.774;8.942;2024-02-21T10:02:49;11.40;;;2.90;;
69030;SDS011;56083;48.774;8.942;2024-02-21T10:05:16;9.90;;;2.40;;
69030;SDS011;56083;48.774;8.942;2024-02-21T10:07:45;11.20;;;2.47;;
69030;SDS011;56083;48.774;8.942;2024-02-21T10:10:13;9.52;;;2.20;;
69030;SDS011;56083;48.774;8.942;2024-02-21T10:12:49;9.43;;;2.47;;
69030;SDS011;56083;48.774;8.942;2024-02-21T10:15:19;9.25;;;2.35;;
69030;SDS011;56083;48.774;8.942;2024-02-21T10:17:45;9.05;;;2.40;;
69030;SDS011;56083;48.774;8.942;2024-02-21T10:20:11;11.73;;;2.70;;
69030;SDS011;56083;48.774;8.942;2024-02-21T10:22:39;11.48;;;2.10;;
69030;SDS011;56083;48.774;8.942;2024-02-21T10:25:11;12.48;;;2.25;;
69030;SDS011;56083;48.774;8.942;2024-02-21T10:27:38;12.18;;;2.13;;
69030;SDS011;56083;48.774;8.942;2024-02-21T10:30:06;13.98;;;2.20;;
69030;SDS011;56083;48.774;8.942;2024-02-21T10:32:32;12.63;;;2.45;;
69030;SDS011;56083;48.774;8.942;2024-02-21T10:35:04;11.93;;;2.60;;
69030;SDS011;56083;48.774;8.942;2024-02-21T10:37:30;10.23;;;2.13;;
69030;SDS011;56083;48.774;8.942;2024-02-21T10:39:57;14.43;;;2.70;;
69030;SDS011;56083;48.774;8.942;2024-02-21T10:42:23;15.50;;;2.67;;
69030;SDS011;56083;48.774;8.942;2024-02-21T10:44:55;14.25;;;2.42;;
69030;SDS011;56083;48.774;8.942;2024-02-21T10:47:23;8.95;;;2.33;;
69030;SDS011;56083;48.774;8.942;2024-02-21T10:50:03;15.63;;;2.88;;
69030;SDS011;56083;48.774;8.942;2024-02-21T10:55:15;16.33;;;2.80;;
69030;SDS011;56083;48.774;8.942;2024-02-21T10:57:42;9.32;;;2.40;;
69030;SDS011;56083;48.774;8.942;2024-02-21T11:00:08;12.82;;;2.15;;
69030;SDS011;56083;48.774;8.942;2024-02-21T11:02:37;10.65;;;2.40;;
69030;SDS011;56083;48.774;8.942;2024-02-21T11:05:04;10.98;;;2.22;;
69030;SDS011;56083;48.774;8.942;2024-02-21T11:07:31;9.15;;;2.00;;
69030;SDS011;56083;48.774;8.942;2024-02-21T11:09:57;9.23;;;2.08;;
69030;SDS011;56083;48.774;8.942;2024-02-21T11:12:25;13.38;;;3.75;;
69030;SDS011;56083;48.774;8.942;2024-02-21T11:14:52;10.02;;;2.30;;
69030;SDS011;56083;48.774;8.942;2024-02-21T11:17:19;7.88;;;2.13;;
69030;SDS011;56083;48.774;8.942;2024-02-21T11:19:51;8.93;;;2.00;;
69030;SDS011;56083;48.774;8.942;2024-02-21T11:22:19;15.20;;;2.13;;
69030;SDS011;56083;48.774;8.942;2024-02-21T11:24:47;9.77;;;1.80;;
69030;SDS011;56083;48.774;8.942;2024-02-21T11:27:20;9.48;;;2.00;;
69030;SDS011;56083;48.774;8.942;2024-02-21T11:29:47;8.18;;;2.15;;
69030;SDS011;56083;48.774;8.942;2024-02-21T11:32:16;7.93;;;1.92;;
69030;SDS011;56083;48.774;8.942;2024-02-21T11:34:58;8.05;;;2.25;;
69030;SDS011;56083;48.774;8.942;2024-02-21T11:37:29;6.97;;;1.73;;
69030;SDS011;56083;48.774;8.942;2024-02-21T11:39:55;5.00;;;1.52;;
69030;SDS011;56083;48.774;8.942;2024-02-21T11:42:21;7.03;;;1.85;;
69030;SDS011;56083;48.774;8.942;2024-02-21T11:44:47;8.55;;;1.70;;
69030;SDS011;56083;48.774;8.942;2024-02-21T11:47:14;6.28;;;1.67;;
69030;SDS011;56083;48.774;8.942;2024-02-21T11:49:47;7.07;;;1.83;;
69030;SDS011;56083;48.774;8.942;2024-02-21T11:52:19;10.50;;;2.35;;
69030;SDS011;56083;48.774;8.942;2024-02-21T11:54:46;6.43;;;1.65;;
69030;SDS011;56083;48.774;8.942;2024-02-21T11:57:12;5.03;;;1.50;;
69030;SDS011;56083;48.774;8.942;2024-02-21T11:59:39;4.32;;;1.60;;
69030;SDS011;56083;48.774;8.942;2024-02-21T12:02:05;6.70;;;1.85;;
69030;SDS011;56083;48.774;8.942;2024-02-21T12:04:31;14.38;;;2.25;;
69030;SDS011;56083;48.774;8.942;2024-02-21T12:06:58;6.53;;;1.63;;
69030;SDS011;56083;48.774;8.942;2024-02-21T12:09:24;9.00;;;1.48;;
69030;SDS011;56083;48.774;8.942;2024-02-21T12:11:57;5.47;;;1.38;;
69030;SDS011;56083;48.774;8.942;2024-02-21T12:14:24;6.25;;;1.58;;
69030;SDS011;56083;48.774;8.942;2024-02-21T12:16:50;4.78;;;1.38;;
69030;SDS011;56083;48.774;8.942;2024-02-21T12:19:17;6.00;;;1.35;;
69030;SDS011;56083;48.774;8.942;2024-02-21T12:21:43;9.30;;;1.73;;
69030;SDS011;56083;48.774;8.942;2024-02-21T12:24:16;4.68;;;1.48;;
69030;SDS011;56083;48.774;8.942;2024-02-21T12:26:42;5.32;;;1.40;;
69030;SDS011;56083;48.774;8.942;2024-02-21T12:29:08;8.48;;;1.60;;
69030;SDS011;56083;48.774;8.942;2024-02-21T12:31:35;4.93;;;1.45;;
69030;SDS011;56083;48.774;8.942;2024-02-21T12:34:01;5.25;;;1.30;;
69030;SDS011;56083;48.774;8.942;2024-02-21T12:36:28;4.40;;;1.35;;
69030;SDS011;56083;48.774;8.942;2024-02-21T12:38:54;6.38;;;1.63;;
69030;SDS011;56083;48.774;8.942;2024-02-21T12:41:21;5.78;;;1.25;;
69030;SDS011;56083;48.774;8.942;2024-02-21T12:43:47;4.50;;;1.20;;
69030;SDS011;56083;48.774;8.942;2024-02-21T12:46:13;6.63;;;1.27;;
69030;SDS011;56083;48.774;8.942;2024-02-21T12:48:39;5.55;;;1.10;;
69030;SDS011;56083;48.774;8.942;2024-02-21T12:51:05;3.92;;;1.13;;
69030;SDS011;56083;48.774;8.942;2024-02-21T12:53:31;3.55;;;1.20;;
69030;SDS011;56083;48.774;8.942;2024-02-21T12:55:57;10.13;;;1.50;;
69030;SDS011;56083;48.774;8.942;2024-02-21T12:58:23;7.00;;;1.67;;
69030;SDS011;56083;48.774;8.942;2024-02-21T13:00:49;4.50;;;1.52;;
69030;SDS011;56083;48.774;8.942;2024-02-21T13:03:15;10.35;;;1.98;;
69030;SDS011;56083;48.774;8.942;2024-02-21T13:05:41;4.78;;;1.23;;
69030;SDS011;56083;48.774;8.942;2024-02-21T13:08:08;6.60;;;1.38;;
69030;SDS011;56083;48.774;8.942;2024-02-21T13:10:34;4.80;;;1.17;;
69030;SDS011;56083;48.774;8.942;2024-02-21T13:13:03;2.95;;;1.25;;
69030;SDS011;56083;48.774;8.942;2024-02-21T13:15:31;5.65;;;1.30;;
69030;SDS011;56083;48.774;8.942;2024-02-21T13:17:57;4.80;;;1.20;;
69030;SDS011;56083;48.774;8.942;2024-02-21T13:20:23;4.43;;;1.38;;
69030;SDS011;56083;48.774;8.942;2024-02-21T13:22:49;3.92;;;1.60;;
69030;SDS011;56083;48.774;8.942;2024-02-21T13:25:15;5.63;;;1.30;;
69030;SDS011;56083;48.774;8.942;2024-02-21T13:27:44;5.15;;;1.40;;
69030;SDS011;56083;48.774;8.942;2024-02-21T13:30:11;3.75;;;1.23;;
69030;SDS011;56083;48.774;8.942;2024-02-21T13:32:37;4.47;;;1.58;;
69030;SDS011;56083;48.774;8.942;2024-02-21T13:35:04;3.65;;;1.45;;
69030;SDS011;56083;48.774;8.942;2024-02-21T13:37:31;3.53;;;1.00;;
69030;SDS011;56083;48.774;8.942;2024-02-21T13:39:57;3.85;;;1.00;;
69030;SDS011;56083;48.774;8.942;2024-02-21T13:42:23;3.05;;;1.10;;
69030;SDS011;56083;48.774;8.942;2024-02-21T13:44:52;4.38;;;0.90;;
69030;SDS011;56083;48.774;8.942;2024-02-21T13:47:18;4.85;;;1.52;;
69030;SDS011;56083;48.774;8.942;2024-02-21T13:49:46;2.50;;;1.20;;
69030;SDS011;56083;48.774;8.942;2024-02-21T13:52:12;3.85;;;1.25;;
69030;SDS011;56083;48.774;8.942;2024-02-21T13:54:39;2.95;;;0.98;;
69030;SDS011;56083;48.774;8.942;2024-02-21T13:57:05;2.13;;;0.90;;
69030;SDS011;56083;48.774;8.942;2024-02-21T13:59:31;2.35;;;1.08;;
69030;SDS011;56083;48.774;8.942;2024-02-21T14:01:58;3.83;;;1.08;;
69030;SDS011;56083;48.774;8.942;2024-02-21T14:04:24;4.00;;;1.20;;
69030;SDS011;56083;48.774;8.942;2024-02-21T14:06:50;3.42;;;1.13;;
69030;SDS011;56083;48.774;8.942;2024-02-21T14:09:18;3.70;;;1.00;;
69030;SDS011;56083;48.774;8.942;2024-02-21T14:11:44;3.00;;;1.00;;
69030;SDS011;56083;48.774;8.942;2024-02-21T14:14:10;2.75;;;0.82;;
69030;SDS011;56083;48.774;8.942;2024-02-21T14:16:36;1.92;;;0.77;;
69030;SDS011;56083;48.774;8.942;2024-02-21T14:19:02;4.63;;;1.23;;
69030;SDS011;56083;48.774;8.942;2024-02-21T14:21:29;3.03;;;1.00;;
69030;SDS011;56083;48.774;8.942;2024-02-21T14:23:55;4.25;;;1.02;;
69030;SDS011;56083;48.774;8.942;2024-02-21T14:26:22;3.53;;;1.10;;
69030;SDS011;56083;48.774;8.942;2024-02-21T14:28:48;4.05;;;1.17;;
69030;SDS011;56083;48.774;8.942;2024-02-21T14:31:14;5.28;;;0.88;;
69030;SDS011;56083;48.774;8.942;2024-02-21T14:33:40;2.42;;;0.80;;
69030;SDS011;56083;48.774;8.942;2024-02-21T14:36:06;3.97;;;0.80;;
69030;SDS011;56083;48.774;8.942;2024-02-21T14:38:32;2.42;;;0.60;;